Nashville, Tennessee
Traffic Map
Current Weather Conditions
Nashville, Tennessee
Clear
Clear
71°
Feels Like: 71°
Wind Chill: 71° Ceiling: Unl
Heat Index: 71° Visibility: 9mi
Dew Point: 68° Wind: 0mph
Humidity: 90% Direction: ° ()
Pressure: 30.02in Gusts: 0mph
Raw Report DataKBNA 240653Z 00000KT 9SM CLR 22/20 A3002 RMK AO2 SLP159 T02170200
Traffic Incident Summary
Active as of:
Severity:
Category:
InformationThere was an issue retrieving the traffic information for this location. Please try a different location or try again shortly.
Advertisements